createdAt,value
2022-08-17T00:00:42.958Z,17.59
2022-08-17T00:01:37.860Z,17.56
2022-08-17T00:02:32.646Z,17.52
2022-08-17T00:03:32.518Z,17.46
2022-08-17T00:04:32.481Z,17.45
2022-08-17T00:05:32.496Z,17.45
2022-08-17T00:06:32.475Z,17.44
2022-08-17T00:07:32.479Z,17.41
2022-08-17T00:08:32.440Z,17.39
2022-08-17T00:09:32.454Z,17.34
2022-08-17T00:10:32.563Z,17.29
2022-08-17T00:11:32.412Z,17.29
2022-08-17T00:12:41.239Z,17.27
2022-08-17T00:13:32.383Z,17.27
2022-08-17T00:14:32.373Z,17.29
2022-08-17T00:15:32.456Z,17.29
2022-08-17T00:16:55.813Z,17.29
2022-08-17T00:17:32.340Z,17.29
2022-08-17T00:19:05.662Z,17.29
2022-08-17T00:19:32.294Z,17.30
2022-08-17T00:20:35.008Z,17.27
2022-08-17T00:22:10.627Z,17.27
2022-08-17T00:22:40.020Z,17.27
2022-08-17T00:23:32.229Z,17.27
2022-08-17T00:24:32.286Z,17.27
2022-08-17T00:25:32.214Z,17.27
2022-08-17T00:26:44.352Z,17.27
2022-08-17T00:27:32.181Z,17.27
2022-08-17T00:28:33.257Z,17.27
2022-08-17T00:29:32.173Z,17.24
2022-08-17T00:30:53.156Z,17.24
2022-08-17T00:31:32.140Z,17.24
2022-08-17T00:33:14.246Z,17.23
2022-08-17T00:33:32.100Z,17.22
2022-08-17T00:34:32.106Z,17.22
2022-08-17T00:35:32.094Z,17.22
2022-08-17T00:36:32.059Z,17.20
2022-08-17T00:37:32.043Z,17.19
2022-08-17T00:38:32.033Z,17.16
2022-08-17T00:39:32.071Z,17.15
2022-08-17T00:40:40.696Z,17.14
2022-08-17T00:41:32.018Z,17.12
2022-08-17T00:42:31.976Z,17.08
2022-08-17T00:43:31.965Z,17.05
2022-08-17T00:44:31.949Z,17.01
2022-08-17T00:45:31.964Z,16.96
2022-08-17T00:46:31.949Z,16.94
2022-08-17T00:47:31.930Z,16.91
2022-08-17T00:48:31.896Z,16.90
2022-08-17T00:49:31.898Z,16.89
2022-08-17T00:50:31.892Z,16.90
2022-08-17T00:51:31.872Z,16.91
2022-08-17T00:52:31.858Z,16.94
2022-08-17T00:53:31.822Z,16.93
2022-08-17T00:54:31.812Z,16.93
2022-08-17T00:55:31.818Z,16.91
2022-08-17T00:56:31.814Z,16.89
2022-08-17T00:57:31.763Z,16.89
2022-08-17T00:58:36.643Z,16.90
2022-08-17T00:59:31.751Z,16.90
2022-08-17T01:00:31.729Z,16.91
2022-08-17T01:01:31.815Z,16.89
2022-08-17T01:02:40.387Z,16.87
2022-08-17T01:03:31.725Z,16.86
2022-08-17T01:04:31.691Z,16.86
2022-08-17T01:05:31.695Z,16.87
2022-08-17T01:06:31.647Z,16.84
2022-08-17T01:07:31.636Z,16.83
2022-08-17T01:08:31.645Z,16.81
2022-08-17T01:09:31.665Z,16.81
2022-08-17T01:11:00.084Z,16.81
2022-08-17T01:11:31.600Z,16.79
2022-08-17T01:12:31.580Z,16.79
2022-08-17T01:13:34.451Z,16.76
2022-08-17T01:14:31.581Z,16.76
2022-08-17T01:15:31.568Z,16.75
2022-08-17T01:16:31.538Z,16.76
2022-08-17T01:17:31.536Z,16.75
2022-08-17T01:18:31.497Z,16.69
2022-08-17T01:19:31.473Z,16.69
2022-08-17T01:20:31.491Z,16.64
2022-08-17T01:21:31.474Z,16.64
2022-08-17T01:22:31.440Z,16.64
2022-08-17T01:23:31.447Z,16.64
2022-08-17T01:24:31.415Z,16.65
2022-08-17T01:25:31.420Z,16.65
2022-08-17T01:26:31.385Z,16.68
2022-08-17T01:27:31.409Z,16.69
2022-08-17T01:28:40.723Z,16.72
2022-08-17T01:29:31.347Z,16.72
2022-08-17T01:30:58.658Z,16.68
2022-08-17T01:31:31.367Z,16.65
2022-08-17T01:32:31.305Z,16.61
2022-08-17T01:33:31.314Z,16.60
2022-08-17T01:34:37.366Z,16.56
2022-08-17T01:35:31.299Z,16.54
2022-08-17T01:36:31.251Z,16.51
2022-08-17T01:37:31.266Z,16.49
2022-08-17T01:38:31.221Z,16.49
2022-08-17T01:39:31.230Z,16.50
2022-08-17T01:40:31.197Z,16.46
2022-08-17T01:41:31.172Z,16.43
2022-08-17T01:42:31.189Z,16.46
2022-08-17T01:43:31.149Z,16.46
2022-08-17T01:44:31.146Z,16.47
2022-08-17T01:45:31.142Z,16.49
2022-08-17T01:46:31.113Z,16.49
2022-08-17T01:47:31.189Z,16.49
2022-08-17T01:48:31.102Z,16.41
2022-08-17T01:49:31.100Z,16.32
2022-08-17T01:50:31.052Z,16.32
2022-08-17T01:51:31.044Z,16.35
2022-08-17T01:52:31.074Z,16.35
2022-08-17T01:53:31.005Z,16.32
2022-08-17T01:54:31.004Z,16.31
2022-08-17T01:55:31.017Z,16.29
2022-08-17T01:56:30.993Z,16.29
2022-08-17T01:57:30.959Z,16.26
2022-08-17T01:58:31.018Z,16.24
2022-08-17T01:59:30.933Z,16.26
2022-08-17T02:01:00.085Z,16.26
2022-08-17T02:01:30.958Z,16.29
2022-08-17T02:02:31.648Z,16.29
2022-08-17T02:03:30.881Z,16.31
2022-08-17T02:04:30.870Z,16.31
2022-08-17T02:05:30.883Z,16.31
2022-08-17T02:06:31.603Z,16.31
2022-08-17T02:07:30.841Z,16.31
2022-08-17T02:08:37.293Z,16.32
2022-08-17T02:09:30.830Z,16.32
2022-08-17T02:10:34.041Z,16.35
2022-08-17T02:11:30.763Z,16.33
2022-08-17T02:12:38.254Z,16.33
2022-08-17T02:13:30.754Z,16.35
2022-08-17T02:14:30.732Z,16.33
2022-08-17T02:15:30.732Z,16.29
2022-08-17T02:16:37.726Z,16.28
2022-08-17T02:17:30.698Z,16.21
2022-08-17T02:18:30.689Z,16.21
2022-08-17T02:19:30.664Z,16.17
2022-08-17T02:20:41.822Z,16.15
2022-08-17T02:21:30.669Z,16.08
2022-08-17T02:22:30.636Z,16.04
2022-08-17T02:23:30.612Z,16.01
2022-08-17T02:25:00.490Z,16.02
2022-08-17T02:25:30.609Z,16.01
2022-08-17T02:26:30.574Z,16.01
2022-08-17T02:27:30.577Z,15.98
2022-08-17T02:28:30.537Z,16.02
2022-08-17T02:29:30.518Z,16.04
2022-08-17T02:30:59.985Z,16.05
2022-08-17T02:31:30.504Z,16.09
2022-08-17T02:32:30.514Z,16.09
2022-08-17T02:33:42.568Z,16.12
2022-08-17T02:34:30.460Z,16.13
2022-08-17T02:35:30.470Z,16.13
2022-08-17T02:36:30.430Z,16.13
2022-08-17T02:37:30.452Z,16.13
2022-08-17T02:38:30.409Z,16.12
2022-08-17T02:39:30.478Z,16.12
2022-08-17T02:40:35.801Z,16.12
2022-08-17T02:41:30.391Z,16.12
2022-08-17T02:42:30.358Z,16.09
2022-08-17T02:43:30.359Z,16.08
2022-08-17T02:44:38.858Z,16.08
2022-08-17T02:45:30.311Z,16.05
2022-08-17T02:46:30.330Z,16.04
2022-08-17T02:47:30.276Z,16.04
2022-08-17T02:48:30.935Z,16.04
2022-08-17T02:49:30.248Z,16.02
2022-08-17T02:50:30.238Z,16.04
2022-08-17T02:51:30.265Z,16.05
2022-08-17T02:52:43.303Z,16.04
2022-08-17T02:53:35.810Z,16.02
2022-08-17T02:54:38.951Z,16.00
2022-08-17T02:55:30.205Z,15.97
2022-08-17T02:56:30.177Z,15.95
2022-08-17T02:57:30.146Z,15.95
2022-08-17T02:58:35.254Z,15.94
2022-08-17T02:59:30.161Z,15.88
2022-08-17T03:00:30.165Z,15.82
2022-08-17T03:01:30.167Z,15.75
2022-08-17T03:02:30.082Z,15.75
2022-08-17T03:03:30.075Z,15.72
2022-08-17T03:04:30.074Z,15.70
2022-08-17T03:05:30.045Z,15.73
2022-08-17T03:06:30.063Z,15.73
2022-08-17T03:07:30.019Z,15.76
2022-08-17T03:08:30.000Z,15.80
2022-08-17T03:09:29.977Z,15.82
2022-08-17T03:10:29.977Z,15.83
2022-08-17T03:11:29.985Z,15.86
2022-08-17T03:12:29.952Z,15.91
2022-08-17T03:13:29.932Z,15.91
2022-08-17T03:14:29.921Z,15.91
2022-08-17T03:15:29.908Z,15.91
2022-08-17T03:16:29.913Z,15.90
2022-08-17T03:17:29.908Z,15.92
2022-08-17T03:18:29.878Z,15.90
2022-08-17T03:19:29.864Z,15.90
2022-08-17T03:20:29.869Z,15.86
2022-08-17T03:21:29.851Z,15.88
2022-08-17T03:22:36.519Z,15.88
2022-08-17T03:23:30.340Z,15.86
2022-08-17T03:24:29.807Z,15.86
2022-08-17T03:25:29.774Z,15.86
2022-08-17T03:26:29.974Z,15.88
2022-08-17T03:27:29.741Z,15.84
2022-08-17T03:28:29.777Z,15.82
2022-08-17T03:29:29.722Z,15.80
2022-08-17T03:30:29.700Z,15.80
2022-08-17T03:31:29.694Z,15.77
2022-08-17T03:32:29.675Z,15.72
2022-08-17T03:33:29.683Z,15.68
2022-08-17T03:34:29.658Z,15.67
2022-08-17T03:35:29.629Z,15.68
2022-08-17T03:36:29.621Z,15.73
2022-08-17T03:37:29.607Z,15.75
2022-08-17T03:38:29.616Z,15.75
2022-08-17T03:39:29.610Z,15.75
2022-08-17T03:40:34.449Z,15.76
2022-08-17T03:41:29.554Z,15.77
2022-08-17T03:42:31.261Z,15.76
2022-08-17T03:43:29.542Z,15.79
2022-08-17T03:44:29.534Z,15.77
2022-08-17T03:45:29.499Z,15.79
2022-08-17T03:46:35.096Z,15.77
2022-08-17T03:47:29.480Z,15.79
2022-08-17T03:48:29.460Z,15.77
2022-08-17T03:49:29.471Z,15.75
2022-08-17T03:50:29.431Z,15.75
2022-08-17T03:51:29.445Z,15.73
2022-08-17T03:52:29.406Z,15.72
2022-08-17T03:53:29.392Z,15.72
2022-08-17T03:54:29.385Z,15.68
2022-08-17T03:55:30.756Z,15.64
2022-08-17T03:56:29.354Z,15.59
2022-08-17T03:57:29.347Z,15.59
2022-08-17T03:58:29.322Z,15.61
2022-08-17T03:59:29.317Z,15.62
2022-08-17T04:00:29.359Z,15.64
2022-08-17T04:01:29.344Z,15.65
2022-08-17T04:02:29.297Z,15.67
2022-08-17T04:03:29.278Z,15.65
2022-08-17T04:04:29.240Z,15.65
2022-08-17T04:05:29.276Z,15.68
2022-08-17T04:06:29.220Z,15.67
2022-08-17T04:07:29.212Z,15.68
2022-08-17T04:08:29.189Z,15.67
2022-08-17T04:09:29.213Z,15.64
2022-08-17T04:10:29.166Z,15.61
2022-08-17T04:11:29.150Z,15.55
2022-08-17T04:12:29.155Z,15.51
2022-08-17T04:13:29.164Z,15.51
2022-08-17T04:14:29.132Z,15.54
2022-08-17T04:15:29.094Z,15.57
2022-08-17T04:16:29.082Z,15.58
2022-08-17T04:17:29.088Z,15.59
2022-08-17T04:18:29.054Z,15.61
2022-08-17T04:19:29.037Z,15.64
2022-08-17T04:20:29.064Z,15.65
2022-08-17T04:21:29.015Z,15.67
2022-08-17T04:22:30.894Z,15.62
2022-08-17T04:23:28.996Z,15.62
2022-08-17T04:24:28.995Z,15.59
2022-08-17T04:25:29.002Z,15.58
2022-08-17T04:26:52.697Z,15.57
2022-08-17T04:27:28.946Z,15.55
2022-08-17T04:28:28.927Z,15.52
2022-08-17T04:29:28.913Z,15.54
2022-08-17T04:30:28.939Z,15.52
2022-08-17T04:31:28.879Z,15.51
2022-08-17T04:33:03.746Z,15.51
2022-08-17T04:33:28.894Z,15.52
2022-08-17T04:34:28.831Z,15.54
2022-08-17T04:35:28.870Z,15.55
2022-08-17T04:36:28.821Z,15.55
2022-08-17T04:37:28.803Z,15.55
2022-08-17T04:38:28.794Z,15.57
2022-08-17T04:39:28.813Z,15.57
2022-08-17T04:40:28.800Z,15.58
2022-08-17T04:41:28.748Z,15.59
2022-08-17T04:42:28.744Z,15.54
2022-08-17T04:43:28.735Z,15.46
2022-08-17T04:44:37.703Z,15.43
2022-08-17T04:45:32.324Z,15.42
2022-08-17T04:46:28.699Z,15.42
2022-08-17T04:47:28.742Z,15.43
2022-08-17T04:48:35.267Z,15.47
2022-08-17T04:49:28.653Z,15.49
2022-08-17T04:50:28.635Z,15.52
2022-08-17T04:51:28.625Z,15.54
2022-08-17T04:52:32.295Z,15.57
2022-08-17T04:53:28.626Z,15.58
2022-08-17T04:54:28.574Z,15.61
2022-08-17T04:55:28.574Z,15.62
2022-08-17T04:56:28.566Z,15.64
2022-08-17T04:57:28.547Z,15.67
2022-08-17T04:58:28.528Z,15.68
2022-08-17T04:59:28.506Z,15.70
2022-08-17T05:00:28.502Z,15.70
2022-08-17T05:01:28.614Z,15.70
2022-08-17T05:02:28.478Z,15.70
2022-08-17T05:03:28.461Z,15.73
2022-08-17T05:04:33.879Z,15.73
2022-08-17T05:05:28.442Z,15.75
2022-08-17T05:06:28.448Z,15.77
2022-08-17T05:07:31.569Z,15.77
2022-08-17T05:08:28.387Z,15.80
2022-08-17T05:09:28.419Z,15.83
2022-08-17T05:10:28.362Z,15.82
2022-08-17T05:11:28.346Z,15.82
2022-08-17T05:12:28.349Z,15.82
2022-08-17T05:13:28.321Z,15.83
2022-08-17T05:14:33.627Z,15.83
2022-08-17T05:15:28.332Z,15.82
2022-08-17T05:16:28.277Z,15.80
2022-08-17T05:17:28.273Z,15.80
2022-08-17T05:18:28.258Z,15.82
2022-08-17T05:19:28.245Z,15.82
2022-08-17T05:20:28.272Z,15.84
2022-08-17T05:21:28.238Z,15.83
2022-08-17T05:22:28.191Z,15.86
2022-08-17T05:23:34.308Z,15.88
2022-08-17T05:24:39.863Z,15.88
2022-08-17T05:25:28.175Z,15.91
2022-08-17T05:26:28.799Z,15.92
2022-08-17T05:27:30.827Z,15.95
2022-08-17T05:28:28.152Z,15.97
2022-08-17T05:29:35.284Z,15.98
2022-08-17T05:30:28.106Z,15.98
2022-08-17T05:31:28.137Z,16.01
2022-08-17T05:32:39.145Z,16.04
2022-08-17T05:33:28.081Z,16.05
2022-08-17T05:34:28.035Z,16.08
2022-08-17T05:35:28.081Z,16.10
2022-08-17T05:36:37.844Z,16.15
2022-08-17T05:37:28.018Z,16.17
2022-08-17T05:38:27.987Z,16.23
2022-08-17T05:39:28.016Z,16.26
2022-08-17T05:40:27.992Z,16.31
2022-08-17T05:41:27.957Z,16.36
2022-08-17T05:42:27.946Z,16.39
2022-08-17T05:43:27.925Z,16.43
2022-08-17T05:44:27.915Z,16.46
2022-08-17T05:45:54.888Z,16.50
2022-08-17T05:46:27.920Z,16.56
2022-08-17T05:47:27.872Z,16.57
2022-08-17T05:48:35.554Z,16.61
2022-08-17T05:49:27.850Z,16.64
2022-08-17T05:50:29.874Z,16.66
2022-08-17T05:51:27.827Z,16.72
2022-08-17T05:52:27.814Z,16.76
2022-08-17T05:53:27.791Z,16.79
2022-08-17T05:54:27.776Z,16.84
2022-08-17T05:55:27.794Z,16.91
2022-08-17T05:56:29.781Z,17.02
2022-08-17T05:57:27.734Z,17.06
2022-08-17T05:58:27.719Z,17.09
2022-08-17T05:59:27.718Z,17.11
2022-08-17T06:00:30.818Z,17.12
2022-08-17T06:01:27.739Z,17.14
2022-08-17T06:02:27.675Z,17.15
2022-08-17T06:03:27.685Z,17.16
2022-08-17T06:04:27.635Z,17.22
2022-08-17T06:05:27.637Z,17.23
2022-08-17T06:06:31.313Z,17.26
2022-08-17T06:07:27.599Z,17.30
2022-08-17T06:08:27.652Z,17.36
2022-08-17T06:09:32.980Z,17.39
2022-08-17T06:10:27.628Z,17.51
2022-08-17T06:11:27.543Z,17.63
2022-08-17T06:12:27.566Z,17.70
2022-08-17T06:13:27.550Z,17.78
2022-08-17T06:14:27.506Z,17.82
2022-08-17T06:15:27.500Z,17.86
2022-08-17T06:16:34.383Z,17.92
2022-08-17T06:17:27.475Z,17.97
2022-08-17T06:18:27.462Z,18.03
2022-08-17T06:19:27.458Z,18.10
2022-08-17T06:20:27.510Z,18.19
2022-08-17T06:21:32.025Z,18.29
2022-08-17T06:22:27.412Z,18.44
2022-08-17T06:23:27.420Z,18.60
2022-08-17T06:24:27.373Z,18.80
2022-08-17T06:25:27.384Z,19.14
2022-08-17T06:26:30.433Z,19.58
2022-08-17T06:27:27.342Z,20.13
2022-08-17T06:28:27.414Z,20.80
2022-08-17T06:29:27.295Z,21.61
2022-08-17T06:30:27.461Z,22.60
2022-08-17T06:31:27.303Z,23.51
2022-08-17T06:32:27.278Z,24.39
2022-08-17T06:33:27.265Z,25.16
2022-08-17T06:34:27.230Z,25.72
2022-08-17T06:35:31.672Z,26.15
2022-08-17T06:36:27.214Z,26.68
2022-08-17T06:37:27.197Z,27.14
2022-08-17T06:38:38.306Z,27.40
2022-08-17T06:39:27.296Z,27.71
2022-08-17T06:40:27.264Z,28.00
2022-08-17T06:41:27.152Z,28.20
2022-08-17T06:43:02.887Z,28.11
2022-08-17T06:43:27.127Z,27.96
2022-08-17T06:44:43.492Z,27.78
2022-08-17T06:45:27.107Z,27.12
2022-08-17T06:46:27.075Z,26.65
2022-08-17T06:47:28.898Z,26.21
2022-08-17T06:48:27.047Z,25.69
2022-08-17T06:49:27.085Z,25.33
2022-08-17T06:50:27.132Z,24.85
2022-08-17T06:51:27.009Z,24.50
2022-08-17T06:52:45.882Z,24.11
2022-08-17T06:53:27.002Z,23.69
2022-08-17T06:54:26.997Z,23.48
2022-08-17T06:55:26.956Z,23.25
2022-08-17T06:56:26.948Z,23.02
2022-08-17T06:57:26.931Z,22.90
2022-08-17T06:58:28.945Z,22.69
2022-08-17T06:59:36.347Z,22.45
2022-08-17T07:00:27.020Z,22.29
2022-08-17T07:01:27.026Z,22.17
2022-08-17T07:02:29.162Z,22.10
2022-08-17T07:03:26.860Z,22.08
2022-08-17T07:04:26.826Z,22.06
2022-08-17T07:05:26.847Z,21.98
2022-08-17T07:06:26.800Z,21.99
2022-08-17T07:07:26.846Z,22.00
2022-08-17T07:08:31.204Z,21.99
2022-08-17T07:09:26.778Z,22.00
2022-08-17T07:10:26.836Z,22.02
2022-08-17T07:11:26.773Z,22.13
2022-08-17T07:12:26.758Z,22.25
2022-08-17T07:13:26.717Z,22.35
2022-08-17T07:14:26.704Z,22.43
2022-08-17T07:15:26.708Z,22.54
2022-08-17T07:16:26.665Z,22.63
2022-08-17T07:17:47.209Z,22.70
2022-08-17T07:18:26.655Z,22.84
2022-08-17T07:19:26.651Z,22.93
2022-08-17T07:20:26.653Z,23.02
2022-08-17T07:21:26.914Z,23.10
2022-08-17T07:22:26.618Z,23.10
2022-08-17T07:23:26.578Z,23.12
2022-08-17T07:24:29.806Z,23.20
2022-08-17T07:25:26.556Z,23.28
2022-08-17T07:26:26.535Z,23.37
2022-08-17T07:27:26.547Z,23.41
2022-08-17T07:28:26.515Z,23.44
2022-08-17T07:29:26.495Z,23.41
2022-08-17T07:30:26.512Z,23.40
2022-08-17T07:31:26.469Z,23.36
2022-08-17T07:32:26.472Z,23.34
2022-08-17T07:33:26.470Z,23.28
2022-08-17T07:34:26.449Z,23.27
2022-08-17T07:35:38.032Z,23.25
2022-08-17T07:36:29.797Z,23.21
2022-08-17T07:37:26.395Z,23.18
2022-08-17T07:38:27.137Z,23.18
2022-08-17T07:39:26.387Z,23.18
2022-08-17T07:40:26.486Z,23.18
2022-08-17T07:41:26.340Z,23.20
2022-08-17T07:42:26.324Z,23.23
2022-08-17T07:43:26.316Z,23.27
2022-08-17T07:44:26.294Z,23.31
2022-08-17T07:45:26.306Z,23.37
2022-08-17T07:46:26.293Z,23.40
2022-08-17T07:47:26.264Z,23.43
2022-08-17T07:48:26.264Z,23.46
2022-08-17T07:49:26.262Z,23.48
2022-08-17T07:50:26.280Z,23.51
2022-08-17T07:51:26.204Z,23.55
2022-08-17T07:52:50.501Z,23.59
2022-08-17T07:53:26.188Z,23.62
2022-08-17T07:54:26.196Z,23.65
2022-08-17T07:55:26.161Z,23.69
2022-08-17T07:56:26.171Z,23.77
2022-08-17T07:57:29.886Z,23.80
2022-08-17T07:58:26.110Z,23.83
2022-08-17T07:59:27.185Z,23.84
2022-08-17T08:00:32.019Z,23.88
2022-08-17T08:01:26.153Z,23.88
2022-08-17T08:02:26.452Z,23.93
2022-08-17T08:03:26.345Z,23.98
2022-08-17T08:04:59.107Z,24.01
2022-08-17T08:05:48.617Z,24.06
2022-08-17T08:06:26.046Z,24.11
2022-08-17T08:07:25.994Z,24.14
2022-08-17T08:08:26.036Z,24.18
2022-08-17T08:09:25.993Z,24.21
2022-08-17T08:10:25.989Z,24.24
2022-08-17T08:11:25.944Z,24.29
2022-08-17T08:12:25.924Z,24.35
2022-08-17T08:13:25.953Z,24.42
2022-08-17T08:14:28.664Z,24.48
2022-08-17T08:15:25.893Z,24.54
2022-08-17T08:16:25.875Z,24.58
2022-08-17T08:17:25.884Z,24.61
2022-08-17T08:18:39.701Z,24.65
2022-08-17T08:19:25.847Z,24.69
2022-08-17T08:20:51.105Z,24.74
2022-08-17T08:21:25.811Z,24.77
2022-08-17T08:22:25.811Z,24.81
2022-08-17T08:23:25.827Z,24.85
2022-08-17T08:24:25.764Z,24.89
2022-08-17T08:25:25.765Z,24.93
2022-08-17T08:26:25.740Z,24.98
2022-08-17T08:27:25.758Z,25.01
2022-08-17T08:28:25.709Z,25.06
2022-08-17T08:29:25.701Z,25.08
2022-08-17T08:30:25.684Z,25.16
2022-08-17T08:31:25.684Z,25.16
2022-08-17T08:32:25.710Z,25.21
2022-08-17T08:33:25.638Z,25.28
2022-08-17T08:34:53.395Z,25.31
2022-08-17T08:35:25.628Z,25.33
2022-08-17T08:36:56.871Z,25.36
2022-08-17T08:37:33.883Z,25.41
2022-08-17T08:38:25.623Z,25.47
2022-08-17T08:39:25.614Z,25.51
2022-08-17T08:40:25.562Z,25.59
2022-08-17T08:41:25.550Z,25.65
2022-08-17T08:42:25.530Z,25.70
2022-08-17T08:43:25.524Z,25.75
2022-08-17T08:45:00.377Z,25.80
2022-08-17T08:45:25.494Z,25.88
2022-08-17T08:46:25.487Z,25.96
2022-08-17T08:47:25.452Z,26.00
2022-08-17T08:48:53.305Z,26.06
2022-08-17T08:49:45.143Z,26.10
2022-08-17T08:50:37.329Z,26.13
2022-08-17T08:51:25.414Z,26.18
2022-08-17T08:52:25.439Z,26.22
2022-08-17T08:53:25.373Z,26.25
2022-08-17T08:54:26.860Z,26.29
2022-08-17T08:55:25.352Z,26.37
2022-08-17T08:56:25.369Z,26.44
2022-08-17T08:57:30.891Z,26.51
2022-08-17T08:58:31.479Z,26.55
2022-08-17T08:59:25.305Z,26.59
2022-08-17T09:00:25.290Z,26.63
2022-08-17T09:01:25.315Z,26.70
2022-08-17T09:02:25.262Z,26.77
2022-08-17T09:03:43.824Z,26.83
2022-08-17T09:04:25.911Z,26.89
2022-08-17T09:05:25.215Z,26.95
2022-08-17T09:06:32.095Z,26.97
2022-08-17T09:07:25.229Z,27.03
2022-08-17T09:08:25.180Z,27.08
2022-08-17T09:09:25.175Z,27.12
2022-08-17T09:10:25.168Z,27.17
2022-08-17T09:11:25.137Z,27.22
2022-08-17T09:12:25.162Z,27.30
2022-08-17T09:13:25.106Z,27.33
2022-08-17T09:14:28.715Z,27.40
2022-08-17T09:15:25.094Z,27.47
2022-08-17T09:16:25.090Z,27.52
2022-08-17T09:17:25.093Z,27.60
2022-08-17T09:19:03.583Z,27.71
2022-08-17T09:19:25.037Z,27.80
2022-08-17T09:20:27.585Z,27.89
2022-08-17T09:21:25.015Z,28.00
2022-08-17T09:22:24.993Z,28.10
2022-08-17T09:23:24.986Z,28.15
2022-08-17T09:24:24.971Z,28.23
2022-08-17T09:25:24.991Z,28.29
2022-08-17T09:26:24.948Z,28.37
2022-08-17T09:27:24.929Z,28.41
2022-08-17T09:28:24.926Z,28.47
2022-08-17T09:29:24.903Z,28.49
2022-08-17T09:30:24.925Z,28.51
2022-08-17T09:31:26.768Z,28.56
2022-08-17T09:32:24.869Z,28.56
2022-08-17T09:33:24.849Z,28.59
2022-08-17T09:34:29.588Z,28.64
2022-08-17T09:35:24.828Z,28.74
2022-08-17T09:36:24.846Z,28.82
2022-08-17T09:37:24.791Z,28.86
2022-08-17T09:38:28.018Z,28.91
2022-08-17T09:39:24.846Z,29.01
2022-08-17T09:40:24.788Z,29.04
2022-08-17T09:41:24.755Z,29.05
2022-08-17T09:42:24.758Z,29.08
2022-08-17T09:43:24.744Z,29.14
2022-08-17T09:44:24.702Z,29.19
2022-08-17T09:45:24.731Z,29.26
2022-08-17T09:46:24.685Z,29.35
2022-08-17T09:47:24.658Z,29.44
2022-08-17T09:48:24.665Z,29.53
2022-08-17T09:49:25.328Z,29.61
2022-08-17T09:50:55.384Z,29.68
2022-08-17T09:51:24.615Z,29.78
2022-08-17T09:52:24.644Z,29.91
2022-08-17T09:53:24.614Z,30.02
2022-08-17T09:54:38.676Z,30.02
2022-08-17T09:55:24.565Z,30.03
2022-08-17T09:56:24.546Z,30.03
2022-08-17T09:57:32.463Z,30.02
2022-08-17T09:58:25.665Z,30.00
2022-08-17T09:59:24.580Z,30.00
2022-08-17T10:00:24.533Z,30.08
2022-08-17T10:01:24.556Z,30.16
2022-08-17T10:02:24.468Z,30.27
2022-08-17T10:03:24.463Z,30.34
2022-08-17T10:04:29.345Z,30.46
2022-08-17T10:05:24.437Z,30.55
2022-08-17T10:06:24.623Z,30.63
2022-08-17T10:07:24.408Z,30.77
2022-08-17T10:08:24.404Z,30.85
2022-08-17T10:09:24.410Z,30.87
2022-08-17T10:10:24.371Z,30.94
2022-08-17T10:11:33.249Z,30.96
2022-08-17T10:12:29.880Z,30.92
2022-08-17T10:13:24.347Z,30.90
2022-08-17T10:14:36.886Z,30.90
2022-08-17T10:15:24.330Z,30.91
2022-08-17T10:16:24.298Z,30.90
2022-08-17T10:17:24.277Z,30.88
2022-08-17T10:18:24.266Z,30.94
2022-08-17T10:19:24.258Z,31.00
2022-08-17T10:20:24.269Z,31.07
2022-08-17T10:21:24.232Z,31.15
2022-08-17T10:22:34.701Z,31.21
2022-08-17T10:23:24.235Z,31.21
2022-08-17T10:24:24.204Z,31.21
2022-08-17T10:25:33.309Z,31.18
2022-08-17T10:26:24.177Z,31.17
2022-08-17T10:27:24.164Z,31.18
2022-08-17T10:28:28.758Z,31.20
2022-08-17T10:29:24.160Z,31.21
2022-08-17T10:30:24.143Z,31.22
2022-08-17T10:31:39.492Z,31.22
2022-08-17T10:32:24.119Z,31.22
2022-08-17T10:33:24.068Z,31.24
2022-08-17T10:34:24.062Z,31.25
2022-08-17T10:35:24.076Z,31.31
2022-08-17T10:36:24.033Z,31.36
2022-08-17T10:37:24.017Z,31.42
2022-08-17T10:38:24.612Z,31.47
2022-08-17T10:39:23.997Z,31.54
2022-08-17T10:40:24.005Z,31.59
2022-08-17T10:41:23.995Z,31.65
2022-08-17T10:42:32.384Z,31.76
2022-08-17T10:43:24.638Z,31.84
2022-08-17T10:44:38.380Z,31.84
2022-08-17T10:45:23.935Z,31.84
2022-08-17T10:46:31.168Z,31.90
2022-08-17T10:47:23.902Z,31.92
2022-08-17T10:48:23.868Z,31.93
2022-08-17T10:49:23.888Z,31.96
2022-08-17T10:50:23.845Z,32.03
2022-08-17T10:51:23.870Z,32.14
2022-08-17T10:52:24.986Z,32.22
2022-08-17T10:53:23.816Z,32.27
2022-08-17T10:54:23.804Z,32.34
2022-08-17T10:55:23.810Z,32.48
2022-08-17T10:56:23.779Z,32.51
2022-08-17T10:57:23.774Z,32.55
2022-08-17T10:58:23.777Z,32.53
2022-08-17T10:59:23.753Z,32.55
2022-08-17T11:00:27.548Z,32.51
2022-08-17T11:01:23.829Z,32.45
2022-08-17T11:02:23.704Z,32.48
2022-08-17T11:03:23.730Z,32.52
2022-08-17T11:04:23.684Z,32.55
2022-08-17T11:05:23.665Z,32.53
2022-08-17T11:06:23.663Z,32.59
2022-08-17T11:07:23.666Z,32.67
2022-08-17T11:08:23.624Z,32.80
2022-08-17T11:09:23.641Z,32.89
2022-08-17T11:10:23.598Z,32.95
2022-08-17T11:11:23.585Z,32.96
2022-08-17T11:12:23.604Z,32.93
2022-08-17T11:13:23.553Z,32.86
2022-08-17T11:14:23.564Z,32.78
2022-08-17T11:15:23.541Z,32.71
2022-08-17T11:16:23.529Z,32.58
2022-08-17T11:17:23.540Z,32.48
2022-08-17T11:18:23.506Z,32.38
2022-08-17T11:19:23.565Z,32.34
2022-08-17T11:20:24.047Z,32.30
2022-08-17T11:21:23.462Z,32.22
2022-08-17T11:22:23.489Z,32.15
2022-08-17T11:23:23.448Z,32.08
2022-08-17T11:24:23.429Z,32.07
2022-08-17T11:25:23.438Z,32.03
2022-08-17T11:26:23.397Z,32.00
2022-08-17T11:27:23.394Z,32.01
2022-08-17T11:28:23.375Z,32.03
2022-08-17T11:29:24.770Z,32.07
2022-08-17T11:30:23.354Z,32.16
2022-08-17T11:31:23.337Z,32.22
2022-08-17T11:32:23.335Z,32.33
2022-08-17T11:33:23.342Z,32.41
2022-08-17T11:34:23.333Z,32.58
2022-08-17T11:35:23.276Z,32.73
2022-08-17T11:36:23.272Z,32.82
2022-08-17T11:37:23.256Z,32.86
2022-08-17T11:38:23.257Z,32.86
2022-08-17T11:39:23.349Z,32.90
2022-08-17T11:40:23.230Z,32.95
2022-08-17T11:41:23.212Z,33.01
2022-08-17T11:42:23.191Z,33.19
2022-08-17T11:43:25.415Z,33.32
2022-08-17T11:44:23.195Z,33.45
2022-08-17T11:45:31.809Z,33.58
2022-08-17T11:46:23.181Z,33.71
2022-08-17T11:47:23.135Z,33.89
2022-08-17T11:48:30.592Z,33.95
2022-08-17T11:49:23.107Z,34.06
2022-08-17T11:50:27.203Z,34.13
2022-08-17T11:51:23.083Z,34.21
2022-08-17T11:52:23.069Z,34.30
2022-08-17T11:53:23.054Z,34.38
2022-08-17T11:54:32.921Z,34.45
2022-08-17T11:55:34.976Z,34.50
2022-08-17T11:56:23.051Z,34.47
2022-08-17T11:57:23.027Z,34.48
2022-08-17T11:58:23.041Z,34.51
2022-08-17T11:59:22.972Z,34.60
2022-08-17T12:00:22.967Z,34.71
2022-08-17T12:01:23.010Z,34.75
2022-08-17T12:02:22.946Z,34.78
2022-08-17T12:03:23.030Z,34.78
2022-08-17T12:04:23.004Z,34.73
2022-08-17T12:05:22.916Z,34.64
2022-08-17T12:06:22.945Z,34.66
2022-08-17T12:07:22.879Z,34.61
2022-08-17T12:08:22.877Z,34.58
2022-08-17T12:09:22.850Z,34.64
2022-08-17T12:10:22.906Z,34.73
2022-08-17T12:12:10.987Z,34.85
2022-08-17T12:12:22.839Z,34.96
2022-08-17T12:13:22.810Z,35.04
2022-08-17T12:14:39.873Z,35.14
2022-08-17T12:15:22.824Z,35.23
2022-08-17T12:16:22.808Z,35.26
2022-08-17T12:17:41.206Z,35.26
2022-08-17T12:18:22.789Z,35.26
2022-08-17T12:19:22.733Z,35.33
2022-08-17T12:20:22.731Z,35.44
2022-08-17T12:21:23.126Z,35.45
2022-08-17T12:22:22.713Z,35.37
2022-08-17T12:23:22.709Z,35.33
2022-08-17T12:24:22.681Z,35.36
2022-08-17T12:25:22.669Z,35.39
2022-08-17T12:26:22.669Z,35.45
2022-08-17T12:27:47.604Z,35.33
2022-08-17T12:28:23.212Z,35.29
2022-08-17T12:29:35.619Z,35.31
2022-08-17T12:30:22.611Z,35.29
2022-08-17T12:31:22.623Z,35.27
2022-08-17T12:32:22.584Z,35.22
2022-08-17T12:33:25.664Z,35.17
2022-08-17T12:34:22.565Z,35.11
2022-08-17T12:35:22.542Z,35.04
2022-08-17T12:36:22.568Z,34.97
2022-08-17T12:37:22.530Z,34.97
2022-08-17T12:38:32.632Z,34.99
2022-08-17T12:39:22.528Z,35.00
2022-08-17T12:40:22.478Z,34.96
2022-08-17T12:41:22.507Z,34.99
2022-08-17T12:42:22.494Z,35.07
2022-08-17T12:43:22.431Z,35.14
2022-08-17T12:44:22.440Z,35.15
2022-08-17T12:45:22.407Z,35.23
2022-08-17T12:46:22.414Z,35.26
2022-08-17T12:47:23.246Z,35.31
2022-08-17T12:48:22.386Z,35.39
2022-08-17T12:49:22.374Z,35.51
2022-08-17T12:50:28.518Z,35.63
2022-08-17T12:51:22.352Z,35.70
2022-08-17T12:52:22.355Z,35.68